createdAt,value
2019-04-07T00:02:13.039Z,19.17
2019-04-07T00:04:45.025Z,18.10
2019-04-07T00:07:17.481Z,17.60
2019-04-07T00:09:50.289Z,17.93
2019-04-07T00:12:22.196Z,17.43
2019-04-07T00:14:54.438Z,17.03
2019-04-07T00:17:26.263Z,18.47
2019-04-07T00:19:58.234Z,17.67
2019-04-07T00:22:30.004Z,17.13
2019-04-07T00:25:02.533Z,17.60
2019-04-07T00:27:34.456Z,17.07
2019-04-07T00:30:08.902Z,17.33
2019-04-07T00:32:41.414Z,16.90
2019-04-07T00:35:23.213Z,16.73
2019-04-07T00:37:47.244Z,17.20
2019-04-07T00:40:20.937Z,17.23
2019-04-07T00:42:53.229Z,16.27
2019-04-07T00:45:26.299Z,17.50
2019-04-07T00:47:58.131Z,17.77
2019-04-07T00:50:31.679Z,16.27
2019-04-07T00:53:04.447Z,16.93
2019-04-07T00:55:36.710Z,16.73
2019-04-07T00:58:08.439Z,16.70
2019-04-07T01:00:42.540Z,17.00
2019-04-07T01:03:14.844Z,16.90
2019-04-07T01:05:47.010Z,16.43
2019-04-07T01:08:18.855Z,16.87
2019-04-07T01:10:50.888Z,17.97
2019-04-07T01:13:23.108Z,16.77
2019-04-07T01:15:56.069Z,16.77
2019-04-07T01:18:32.817Z,17.20
2019-04-07T01:21:05.048Z,17.40
2019-04-07T01:23:36.801Z,17.30
2019-04-07T01:26:08.777Z,17.10
2019-04-07T01:28:40.710Z,17.43
2019-04-07T01:31:13.304Z,17.90
2019-04-07T01:33:45.628Z,16.83
2019-04-07T01:36:17.516Z,17.43
2019-04-07T01:38:49.325Z,17.33
2019-04-07T01:41:43.094Z,19.97
2019-04-07T01:44:34.277Z,17.70
2019-04-07T01:47:24.228Z,17.80
2019-04-07T01:50:18.690Z,18.93
2019-04-07T01:53:04.880Z,19.43
2019-04-07T01:55:54.114Z,18.03
2019-04-07T01:58:44.864Z,17.10
2019-04-07T02:01:29.626Z,16.77
2019-04-07T02:04:07.122Z,18.33
2019-04-07T02:06:57.516Z,16.90
2019-04-07T02:09:39.221Z,17.77
2019-04-07T02:12:30.268Z,16.83
2019-04-07T02:15:24.079Z,19.90
2019-04-07T02:18:07.120Z,17.73
2019-04-07T02:20:56.723Z,16.80
2019-04-07T02:23:48.202Z,17.13
2019-04-07T02:26:44.711Z,18.67
2019-04-07T02:29:52.141Z,17.40
2019-04-07T02:32:52.594Z,18.33
2019-04-07T02:35:43.111Z,20.03
2019-04-07T02:38:24.928Z,18.53
2019-04-07T02:41:06.776Z,18.73
2019-04-07T02:44:00.301Z,18.37
2019-04-07T02:46:44.176Z,18.20
2019-04-07T02:49:38.035Z,18.33
2019-04-07T02:52:30.308Z,19.20
2019-04-07T02:55:21.864Z,18.23
2019-04-07T02:58:10.470Z,18.03
2019-04-07T03:01:01.913Z,17.10
2019-04-07T03:03:42.789Z,18.37
2019-04-07T03:06:47.667Z,17.37
2019-04-07T03:09:38.696Z,18.07
2019-04-07T03:12:29.349Z,18.23
2019-04-07T03:15:19.386Z,18.63
2019-04-07T03:18:10.179Z,18.43
2019-04-07T03:21:03.924Z,18.53
2019-04-07T03:23:45.815Z,18.10
2019-04-07T03:26:35.441Z,18.33
2019-04-07T03:29:31.909Z,18.37
2019-04-07T03:32:23.948Z,19.03
2019-04-07T03:35:13.244Z,18.97
2019-04-07T03:38:14.984Z,18.20
2019-04-07T03:40:54.979Z,19.20
2019-04-07T03:43:44.762Z,18.33
2019-04-07T03:46:25.250Z,18.87
2019-04-07T03:49:04.206Z,19.40
2019-04-07T03:51:49.553Z,18.70
2019-04-07T03:54:33.554Z,18.10
2019-04-07T03:57:21.544Z,18.23
2019-04-07T04:00:18.860Z,18.57
2019-04-07T04:03:00.456Z,18.83
2019-04-07T04:05:53.941Z,18.50
2019-04-07T04:08:51.273Z,18.40
2019-04-07T04:11:34.290Z,18.57
2019-04-07T04:14:31.321Z,19.37
2019-04-07T04:17:04.254Z,19.33
2019-04-07T04:19:36.265Z,18.87
2019-04-07T04:22:09.090Z,19.97
2019-04-07T04:24:41.085Z,18.43
2019-04-07T04:27:13.373Z,19.77
2019-04-07T04:29:45.142Z,19.00
2019-04-07T04:32:16.997Z,19.80
2019-04-07T04:34:48.731Z,21.53
2019-04-07T04:37:34.636Z,19.97
2019-04-07T04:39:55.406Z,19.70
2019-04-07T04:42:27.821Z,18.47
2019-04-07T04:44:59.598Z,20.17
2019-04-07T04:47:31.420Z,20.17
2019-04-07T04:50:06.050Z,19.07
2019-04-07T04:52:38.478Z,20.83
2019-04-07T04:55:11.206Z,20.10
2019-04-07T04:57:43.206Z,21.07
2019-04-07T05:00:15.865Z,21.90
2019-04-07T05:02:48.121Z,22.67
2019-04-07T05:05:20.171Z,21.50
2019-04-07T05:07:58.947Z,23.00
2019-04-07T05:10:26.537Z,23.60
2019-04-07T05:12:58.940Z,23.37
2019-04-07T05:15:30.962Z,22.50
2019-04-07T05:18:02.970Z,21.33
2019-04-07T05:20:34.803Z,21.47
2019-04-07T05:23:07.814Z,21.83
2019-04-07T05:25:40.328Z,20.30
2019-04-07T05:28:12.567Z,20.80
2019-04-07T05:30:44.355Z,21.27
2019-04-07T05:33:16.628Z,24.73
2019-04-07T05:35:48.446Z,27.07
2019-04-07T05:38:21.269Z,29.40
2019-04-07T05:40:53.179Z,26.73
2019-04-07T05:43:25.238Z,26.03
2019-04-07T05:45:57.611Z,25.50
2019-04-07T05:48:29.612Z,23.50
2019-04-07T05:51:01.405Z,24.63
2019-04-07T05:53:34.474Z,24.03
2019-04-07T05:56:06.327Z,23.93
2019-04-07T05:58:40.771Z,24.70
2019-04-07T06:01:11.862Z,25.27
2019-04-07T06:03:43.738Z,25.30
2019-04-07T06:06:15.856Z,26.53
2019-04-07T06:08:48.869Z,26.60
2019-04-07T06:11:21.714Z,25.97
2019-04-07T06:13:53.862Z,26.50
2019-04-07T06:16:25.631Z,27.07
2019-04-07T06:18:57.797Z,26.17
2019-04-07T06:21:29.636Z,26.43
2019-04-07T06:24:02.524Z,25.50
2019-04-07T06:26:34.342Z,25.50
2019-04-07T06:29:06.948Z,25.80
2019-04-07T06:31:39.068Z,26.27
2019-04-07T06:34:11.994Z,24.80
2019-04-07T06:36:44.215Z,23.23
2019-04-07T06:39:18.190Z,23.20
2019-04-07T06:41:49.553Z,21.50
2019-04-07T06:44:23.202Z,22.33
2019-04-07T06:47:05.324Z,21.97
2019-04-07T06:49:56.465Z,22.20
2019-04-07T06:52:47.691Z,21.07
2019-04-07T06:55:37.444Z,22.63
2019-04-07T06:58:15.619Z,22.03
2019-04-07T07:01:25.723Z,22.07
2019-04-07T07:04:13.153Z,21.30
2019-04-07T07:06:55.777Z,21.50
2019-04-07T07:09:38.766Z,20.77
2019-04-07T07:12:38.806Z,19.60
2019-04-07T07:15:24.534Z,19.43
2019-04-07T07:18:14.200Z,17.77
2019-04-07T07:21:06.884Z,23.97
2019-04-07T07:23:44.738Z,22.40
2019-04-07T07:26:14.692Z,22.40
2019-04-07T07:28:46.927Z,25.67
2019-04-07T07:31:22.831Z,22.33
2019-04-07T07:33:52.861Z,22.40
2019-04-07T07:36:24.962Z,23.20
2019-04-07T07:39:01.719Z,20.33
2019-04-07T07:41:31.169Z,21.60
2019-04-07T07:44:04.154Z,24.20
2019-04-07T07:46:37.611Z,22.40
2019-04-07T07:49:10.374Z,22.40
2019-04-07T07:51:45.055Z,23.20
2019-04-07T07:54:16.159Z,22.40
2019-04-07T07:56:50.143Z,20.77
2019-04-07T07:59:22.501Z,21.17
2019-04-07T08:01:54.570Z,22.03
2019-04-07T08:04:27.632Z,20.93
2019-04-07T08:07:02.241Z,25.43
2019-04-07T08:09:33.470Z,22.33
2019-04-07T08:12:06.312Z,19.87
2019-04-07T08:14:38.585Z,20.47
2019-04-07T08:17:12.195Z,14.53
2019-04-07T08:19:45.320Z,21.80
2019-04-07T08:22:27.646Z,17.90
2019-04-07T08:24:52.024Z,15.23
2019-04-07T08:27:24.634Z,15.63
2019-04-07T08:29:58.290Z,15.00
2019-04-07T08:32:32.212Z,15.93
2019-04-07T08:35:05.611Z,18.20
2019-04-07T08:37:38.365Z,15.00
2019-04-07T08:40:10.953Z,15.03
2019-04-07T08:42:44.416Z,15.58
2019-04-07T08:45:17.929Z,16.23
2019-04-07T08:47:51.003Z,16.77
2019-04-07T08:50:27.223Z,15.47
2019-04-07T08:52:57.853Z,18.57
2019-04-07T08:55:29.902Z,18.40
2019-04-07T08:58:04.294Z,21.25
2019-04-07T09:00:38.814Z,18.00
2019-04-07T09:03:14.628Z,16.27
2019-04-07T09:05:44.463Z,17.70
2019-04-07T09:08:17.801Z,17.67
2019-04-07T09:10:58.204Z,19.42
2019-04-07T09:13:33.149Z,19.75
2019-04-07T09:16:38.172Z,21.85
2019-04-07T09:19:38.562Z,21.35
2019-04-07T09:22:29.736Z,21.33
2019-04-07T09:25:26.130Z,12.93
2019-04-07T09:28:15.506Z,15.93
2019-04-07T09:31:08.494Z,19.85
2019-04-07T09:33:52.827Z,18.82
2019-04-07T09:36:51.400Z,16.75
2019-04-07T09:39:52.914Z,19.23
2019-04-07T09:42:36.838Z,16.95
2019-04-07T09:45:26.774Z,19.45
2019-04-07T09:48:06.453Z,18.87
2019-04-07T09:51:05.060Z,16.67
2019-04-07T09:53:56.785Z,15.40
2019-04-07T09:56:48.291Z,18.50
2019-04-07T09:59:42.906Z,19.17
2019-04-07T10:02:35.334Z,17.23
2019-04-07T10:05:40.258Z,12.03
2019-04-07T10:08:30.486Z,16.73
2019-04-07T10:11:20.834Z,18.17
2019-04-07T10:14:12.604Z,17.23
2019-04-07T10:17:06.587Z,14.03
2019-04-07T10:19:57.349Z,13.72
2019-04-07T10:22:41.846Z,14.13
2019-04-07T10:25:33.253Z,13.65
2019-04-07T10:28:13.755Z,14.35
2019-04-07T10:31:09.753Z,12.30
2019-04-07T10:33:59.536Z,14.15
2019-04-07T10:36:45.075Z,13.22
2019-04-07T10:39:34.999Z,14.30
2019-04-07T10:42:29.301Z,14.45
2019-04-07T10:45:09.116Z,13.83
2019-04-07T10:47:47.917Z,11.68
2019-04-07T10:50:37.882Z,13.85
2019-04-07T10:53:19.583Z,12.53
2019-04-07T10:56:02.427Z,13.32
2019-04-07T10:58:59.379Z,12.25
2019-04-07T11:01:38.831Z,11.90
2019-04-07T11:04:29.442Z,15.00
2019-04-07T11:07:12.954Z,15.20
2019-04-07T11:10:02.892Z,15.05
2019-04-07T11:13:14.625Z,13.95
2019-04-07T11:16:06.339Z,13.98
2019-04-07T11:18:53.260Z,13.62
2019-04-07T11:21:57.323Z,14.38
2019-04-07T11:24:43.391Z,13.43
2019-04-07T11:27:29.914Z,13.43
2019-04-07T11:30:08.146Z,13.58
2019-04-07T11:33:09.501Z,12.78
2019-04-07T11:35:48.541Z,13.28
2019-04-07T11:38:38.527Z,13.08
2019-04-07T11:41:23.550Z,13.50
2019-04-07T11:44:19.216Z,14.10
2019-04-07T11:47:02.082Z,13.15
2019-04-07T11:49:53.880Z,12.85
2019-04-07T11:52:51.597Z,13.75
2019-04-07T11:55:52.168Z,13.95
2019-04-07T11:58:39.800Z,13.68
2019-04-07T12:01:21.274Z,15.83
2019-04-07T12:04:09.994Z,13.62
2019-04-07T12:07:00.049Z,13.88
2019-04-07T12:10:04.026Z,13.60
2019-04-07T12:12:51.728Z,14.30
2019-04-07T12:15:46.112Z,12.93
2019-04-07T12:18:36.065Z,13.65
2019-04-07T12:21:20.081Z,12.73
2019-04-07T12:24:03.288Z,13.13
2019-04-07T12:26:49.657Z,14.05
2019-04-07T12:29:39.783Z,11.95
2019-04-07T12:32:27.815Z,13.40
2019-04-07T12:35:19.127Z,12.18
2019-04-07T12:38:19.395Z,12.60
2019-04-07T12:41:22.080Z,11.57
2019-04-07T12:44:15.889Z,12.23
2019-04-07T12:47:05.262Z,12.03
2019-04-07T12:50:02.886Z,12.40
2019-04-07T12:52:54.041Z,11.85
2019-04-07T12:55:49.745Z,11.65
2019-04-07T12:58:55.939Z,12.25
2019-04-07T13:01:53.182Z,11.93
2019-04-07T13:04:32.513Z,11.70
2019-04-07T13:07:22.914Z,12.70
2019-04-07T13:10:09.326Z,12.00
2019-04-07T13:13:09.222Z,12.23
2019-04-07T13:16:06.388Z,12.23
2019-04-07T13:19:14.315Z,12.25
2019-04-07T13:22:00.615Z,12.73
2019-04-07T13:25:01.743Z,12.82
2019-04-07T13:28:02.205Z,12.30
2019-04-07T13:30:43.286Z,12.07
2019-04-07T13:33:26.406Z,12.60
2019-04-07T13:36:28.016Z,12.05
2019-04-07T13:39:07.496Z,12.47
2019-04-07T13:42:01.087Z,11.05
2019-04-07T13:44:52.558Z,11.57
2019-04-07T13:47:32.958Z,12.23
2019-04-07T13:50:31.921Z,11.78
2019-04-07T13:53:12.094Z,11.93
2019-04-07T13:55:55.535Z,11.97
2019-04-07T13:58:55.506Z,12.13
2019-04-07T14:01:58.201Z,12.50
2019-04-07T14:04:47.848Z,12.95
2019-04-07T14:07:41.869Z,12.03
2019-04-07T14:10:25.619Z,12.20
2019-04-07T14:13:22.892Z,11.40
2019-04-07T14:16:11.315Z,11.60
2019-04-07T14:18:58.442Z,12.60
2019-04-07T14:21:47.303Z,13.62
2019-04-07T14:24:29.945Z,12.03
2019-04-07T14:27:07.517Z,13.32
2019-04-07T14:29:50.204Z,14.25
2019-04-07T14:32:29.516Z,14.63
2019-04-07T14:35:14.063Z,15.13
2019-04-07T14:38:08.892Z,12.65
2019-04-07T14:40:51.116Z,12.80
2019-04-07T14:43:43.123Z,12.95
2019-04-07T14:46:43.751Z,12.50
2019-04-07T14:49:33.925Z,11.43
2019-04-07T14:52:30.734Z,12.35
2019-04-07T14:55:30.431Z,12.85
2019-04-07T14:58:21.669Z,11.48
2019-04-07T15:01:06.550Z,12.47
2019-04-07T15:03:37.448Z,13.13
2019-04-07T15:06:09.829Z,13.15
2019-04-07T15:09:07.925Z,13.30
2019-04-07T15:11:48.731Z,12.13
2019-04-07T15:14:21.265Z,12.65
2019-04-07T15:16:53.547Z,12.13
2019-04-07T15:19:25.412Z,11.60
2019-04-07T15:21:58.161Z,12.10
2019-04-07T15:24:30.681Z,11.93
2019-04-07T15:27:03.664Z,11.70
2019-04-07T15:29:39.855Z,12.47
2019-04-07T15:32:10.606Z,12.40
2019-04-07T15:34:43.493Z,13.13
2019-04-07T15:37:19.334Z,12.50
2019-04-07T15:39:50.544Z,12.58
2019-04-07T15:42:36.033Z,12.68
2019-04-07T15:44:57.290Z,12.35
2019-04-07T15:47:29.890Z,13.75
2019-04-07T15:50:02.945Z,12.90
2019-04-07T15:52:35.864Z,13.15
2019-04-07T15:55:11.462Z,13.05
2019-04-07T15:57:42.899Z,13.75
2019-04-07T16:00:16.535Z,13.68
2019-04-07T16:02:50.212Z,13.88
2019-04-07T16:05:22.729Z,16.93
2019-04-07T16:07:55.443Z,14.28
2019-04-07T16:10:29.114Z,13.65
2019-04-07T16:13:02.639Z,15.13
2019-04-07T16:15:35.027Z,13.00
2019-04-07T16:18:08.614Z,24.40
2019-04-07T16:20:41.673Z,14.33
2019-04-07T16:23:17.462Z,14.83
2019-04-07T16:25:47.893Z,141.62
2019-04-07T16:28:20.804Z,41.68
2019-04-07T16:30:52.822Z,23.32
2019-04-07T16:33:26.106Z,16.87
2019-04-07T16:35:59.991Z,15.35
2019-04-07T16:38:33.090Z,15.65
2019-04-07T16:41:06.430Z,14.68
2019-04-07T16:43:39.821Z,14.45
2019-04-07T16:46:15.606Z,13.18
2019-04-07T16:48:45.883Z,13.65
2019-04-07T16:51:18.136Z,13.30
2019-04-07T16:53:50.992Z,13.18
2019-04-07T16:56:23.418Z,14.15
2019-04-07T16:58:56.605Z,12.85
2019-04-07T17:01:28.853Z,13.22
2019-04-07T17:04:01.324Z,12.25
2019-04-07T17:06:35.849Z,13.00
2019-04-07T17:09:17.865Z,12.88
2019-04-07T17:11:50.515Z,14.78
2019-04-07T17:14:23.703Z,13.28
2019-04-07T17:16:56.724Z,40.30
2019-04-07T17:19:29.995Z,40.10
2019-04-07T17:22:03.100Z,40.65
2019-04-07T17:24:35.371Z,23.55
2019-04-07T17:27:09.739Z,20.17
2019-04-07T17:29:41.980Z,17.32
2019-04-07T17:32:13.941Z,17.80
2019-04-07T17:34:46.578Z,17.55
2019-04-07T17:37:18.683Z,17.77
2019-04-07T17:39:57.997Z,17.73
2019-04-07T17:42:30.327Z,17.87
2019-04-07T17:45:22.244Z,16.85
2019-04-07T17:48:20.228Z,15.55
2019-04-07T17:51:09.109Z,15.78
2019-04-07T17:53:50.617Z,15.17
2019-04-07T17:56:43.270Z,14.65
2019-04-07T17:59:28.257Z,14.87
2019-04-07T18:02:19.076Z,15.13
2019-04-07T18:05:04.465Z,14.37
2019-04-07T18:07:56.424Z,13.30
2019-04-07T18:10:59.378Z,14.53
2019-04-07T18:13:51.006Z,14.17
2019-04-07T18:16:40.793Z,14.20
2019-04-07T18:19:36.132Z,15.03
2019-04-07T18:22:25.721Z,18.67
2019-04-07T18:25:03.895Z,18.03
2019-04-07T18:27:55.483Z,16.73
2019-04-07T18:30:49.669Z,17.03
2019-04-07T18:33:51.512Z,18.40
2019-04-07T18:36:49.161Z,19.10
2019-04-07T18:39:30.846Z,19.57
2019-04-07T18:42:30.735Z,18.97
2019-04-07T18:45:28.704Z,19.23
2019-04-07T18:48:13.612Z,20.43
2019-04-07T18:51:05.946Z,21.27
2019-04-07T18:54:05.385Z,20.87
2019-04-07T18:57:10.880Z,20.57
2019-04-07T19:00:19.369Z,22.43
2019-04-07T19:03:04.901Z,23.43
2019-04-07T19:05:56.518Z,26.97
2019-04-07T19:08:55.093Z,29.13
2019-04-07T19:11:47.692Z,28.00
2019-04-07T19:14:43.438Z,26.27
2019-04-07T19:17:25.498Z,25.93
2019-04-07T19:20:19.370Z,26.87
2019-04-07T19:23:16.983Z,26.30
2019-04-07T19:26:20.620Z,26.53
2019-04-07T19:29:10.463Z,26.20
2019-04-07T19:32:08.006Z,26.33
2019-04-07T19:34:53.012Z,24.70
2019-04-07T19:37:37.171Z,25.10
2019-04-07T19:40:38.080Z,25.27
2019-04-07T19:43:22.195Z,25.90
2019-04-07T19:46:12.671Z,25.00
2019-04-07T19:49:03.834Z,27.10
2019-04-07T19:51:52.210Z,26.90
2019-04-07T19:54:51.085Z,27.87
2019-04-07T19:57:27.861Z,28.13
2019-04-07T20:00:14.243Z,27.43
2019-04-07T20:03:09.612Z,29.60
2019-04-07T20:06:00.681Z,31.70
2019-04-07T20:08:45.901Z,34.27
2019-04-07T20:11:38.616Z,32.13
2019-04-07T20:14:28.497Z,34.97
2019-04-07T20:17:32.407Z,40.43
2019-04-07T20:20:14.938Z,37.23
2019-04-07T20:23:21.188Z,39.63
2019-04-07T20:26:21.422Z,39.03
2019-04-07T20:29:13.380Z,38.00
2019-04-07T20:31:59.198Z,39.77
2019-04-07T20:34:53.330Z,40.53
2019-04-07T20:37:38.450Z,41.60
2019-04-07T20:40:19.318Z,41.23
2019-04-07T20:43:00.524Z,45.23
2019-04-07T20:45:48.989Z,47.70
2019-04-07T20:48:38.150Z,44.33
2019-04-07T20:51:19.006Z,45.73
2019-04-07T20:54:07.681Z,41.17
2019-04-07T20:56:53.012Z,39.13
2019-04-07T20:59:47.141Z,37.07
2019-04-07T21:02:38.265Z,40.17
2019-04-07T21:05:30.570Z,37.03
2019-04-07T21:08:25.947Z,38.00
2019-04-07T21:11:33.239Z,37.73
2019-04-07T21:14:30.382Z,39.13
2019-04-07T21:17:36.395Z,39.87
2019-04-07T21:20:27.772Z,42.47
2019-04-07T21:23:09.277Z,42.73
2019-04-07T21:26:03.651Z,46.23
2019-04-07T21:28:54.582Z,44.40
2019-04-07T21:31:33.393Z,43.60
2019-04-07T21:34:26.952Z,50.87
2019-04-07T21:37:10.670Z,50.17
2019-04-07T21:39:49.233Z,51.90
2019-04-07T21:42:31.873Z,83.97
2019-04-07T21:45:37.092Z,71.17
2019-04-07T21:48:20.160Z,79.50
2019-04-07T21:51:15.778Z,81.23
2019-04-07T21:54:03.916Z,69.57
2019-04-07T21:56:58.156Z,79.73
2019-04-07T21:59:50.020Z,76.43
2019-04-07T22:02:49.252Z,74.13
2019-04-07T22:05:28.664Z,67.50
2019-04-07T22:08:12.858Z,69.23
2019-04-07T22:10:39.874Z,59.53
2019-04-07T22:13:12.217Z,58.33
2019-04-07T22:15:49.634Z,61.23
2019-04-07T22:18:17.928Z,58.20
2019-04-07T22:20:52.310Z,57.93
2019-04-07T22:23:23.353Z,56.97
2019-04-07T22:25:56.000Z,55.27
2019-04-07T22:28:30.023Z,56.67
2019-04-07T22:31:01.942Z,55.13
2019-04-07T22:33:34.922Z,51.97
2019-04-07T22:36:11.171Z,53.33
2019-04-07T22:38:41.142Z,52.77
2019-04-07T22:41:13.841Z,47.10
2019-04-07T22:43:49.555Z,46.43
2019-04-07T22:46:24.548Z,49.03
2019-04-07T22:48:56.976Z,49.13
2019-04-07T22:51:28.377Z,46.53
2019-04-07T22:54:01.834Z,44.90
2019-04-07T22:56:36.687Z,45.73
2019-04-07T22:59:09.072Z,51.90
2019-04-07T23:01:41.068Z,48.50
2019-04-07T23:04:12.824Z,47.57
2019-04-07T23:06:44.899Z,46.53
2019-04-07T23:09:17.543Z,43.80
2019-04-07T23:11:50.303Z,44.27
2019-04-07T23:14:23.351Z,42.07
2019-04-07T23:16:56.268Z,42.67
2019-04-07T23:19:29.068Z,41.83
2019-04-07T23:22:01.284Z,40.20
2019-04-07T23:24:33.083Z,39.73
2019-04-07T23:27:06.125Z,41.83
2019-04-07T23:29:38.746Z,39.07
2019-04-07T23:32:11.671Z,39.53
2019-04-07T23:34:43.734Z,38.90
2019-04-07T23:37:16.554Z,38.73
2019-04-07T23:39:48.477Z,38.13
2019-04-07T23:42:20.998Z,36.13
2019-04-07T23:44:53.189Z,38.07
2019-04-07T23:47:25.212Z,38.47
2019-04-07T23:49:56.969Z,36.90
2019-04-07T23:52:29.314Z,36.10
2019-04-07T23:55:02.364Z,35.97
2019-04-07T23:57:34.807Z,35.50
